sensor_id;sensor_type;location;lat;lon;timestamp;P1;durP1;ratioP1;P2;durP2;ratioP2
78482;SDS011;67772;50.158;8.658;2023-03-01T00:00:11;12.45;;;6.78;;
78482;SDS011;67772;50.158;8.658;2023-03-01T00:02:37;7.50;;;5.63;;
78482;SDS011;67772;50.158;8.658;2023-03-01T00:05:02;12.87;;;6.67;;
78482;SDS011;67772;50.158;8.658;2023-03-01T00:07:28;11.48;;;6.63;;
78482;SDS011;67772;50.158;8.658;2023-03-01T00:09:53;9.67;;;5.77;;
78482;SDS011;67772;50.158;8.658;2023-03-01T00:12:19;12.82;;;5.97;;
78482;SDS011;67772;50.158;8.658;2023-03-01T00:14:44;12.70;;;6.30;;
78482;SDS011;67772;50.158;8.658;2023-03-01T00:17:10;11.33;;;6.43;;
78482;SDS011;67772;50.158;8.658;2023-03-01T00:19:35;10.63;;;5.85;;
78482;SDS011;67772;50.158;8.658;2023-03-01T00:22:00;10.70;;;6.27;;
78482;SDS011;67772;50.158;8.658;2023-03-01T00:24:25;10.43;;;5.70;;
78482;SDS011;67772;50.158;8.658;2023-03-01T00:26:54;11.13;;;6.13;;
78482;SDS011;67772;50.158;8.658;2023-03-01T00:29:21;13.77;;;6.45;;
78482;SDS011;67772;50.158;8.658;2023-03-01T00:31:47;10.30;;;6.25;;
78482;SDS011;67772;50.158;8.658;2023-03-01T00:34:12;9.90;;;5.37;;
78482;SDS011;67772;50.158;8.658;2023-03-01T00:36:37;9.95;;;5.47;;
78482;SDS011;67772;50.158;8.658;2023-03-01T00:39:04;9.70;;;5.72;;
78482;SDS011;67772;50.158;8.658;2023-03-01T00:41:33;11.10;;;6.55;;
78482;SDS011;67772;50.158;8.658;2023-03-01T00:43:59;9.60;;;6.38;;
78482;SDS011;67772;50.158;8.658;2023-03-01T00:46:25;11.30;;;5.38;;
78482;SDS011;67772;50.158;8.658;2023-03-01T00:48:52;13.68;;;6.07;;
78482;SDS011;67772;50.158;8.658;2023-03-01T00:51:19;10.13;;;5.88;;
78482;SDS011;67772;50.158;8.658;2023-03-01T00:53:46;12.02;;;6.53;;
78482;SDS011;67772;50.158;8.658;2023-03-01T00:56:12;12.05;;;6.38;;
78482;SDS011;67772;50.158;8.658;2023-03-01T00:58:38;10.70;;;5.78;;
78482;SDS011;67772;50.158;8.658;2023-03-01T01:01:14;10.45;;;5.95;;
78482;SDS011;67772;50.158;8.658;2023-03-01T01:03:48;10.60;;;5.85;;
78482;SDS011;67772;50.158;8.658;2023-03-01T01:06:24;10.88;;;5.78;;
78482;SDS011;67772;50.158;8.658;2023-03-01T01:08:54;9.93;;;5.50;;
78482;SDS011;67772;50.158;8.658;2023-03-01T01:11:20;9.80;;;6.00;;
78482;SDS011;67772;50.158;8.658;2023-03-01T01:13:48;9.95;;;6.22;;
78482;SDS011;67772;50.158;8.658;2023-03-01T01:16:14;13.73;;;6.68;;
78482;SDS011;67772;50.158;8.658;2023-03-01T01:18:41;12.00;;;6.35;;
78482;SDS011;67772;50.158;8.658;2023-03-01T01:21:07;13.83;;;6.60;;
78482;SDS011;67772;50.158;8.658;2023-03-01T01:23:35;12.30;;;6.03;;
78482;SDS011;67772;50.158;8.658;2023-03-01T01:26:05;14.20;;;7.18;;
78482;SDS011;67772;50.158;8.658;2023-03-01T01:28:31;10.93;;;5.97;;
78482;SDS011;67772;50.158;8.658;2023-03-01T01:30:57;11.13;;;6.18;;
78482;SDS011;67772;50.158;8.658;2023-03-01T01:33:22;11.90;;;6.77;;
78482;SDS011;67772;50.158;8.658;2023-03-01T01:35:48;11.10;;;6.15;;
78482;SDS011;67772;50.158;8.658;2023-03-01T01:38:13;12.88;;;6.47;;
78482;SDS011;67772;50.158;8.658;2023-03-01T01:40:48;11.05;;;6.47;;
78482;SDS011;67772;50.158;8.658;2023-03-01T01:43:19;9.73;;;6.13;;
78482;SDS011;67772;50.158;8.658;2023-03-01T01:45:50;9.80;;;5.97;;
78482;SDS011;67772;50.158;8.658;2023-03-01T01:48:18;14.82;;;6.93;;
78482;SDS011;67772;50.158;8.658;2023-03-01T01:50:49;12.02;;;6.65;;
78482;SDS011;67772;50.158;8.658;2023-03-01T01:53:20;10.43;;;6.07;;
78482;SDS011;67772;50.158;8.658;2023-03-01T01:55:47;11.48;;;6.90;;
78482;SDS011;67772;50.158;8.658;2023-03-01T01:58:18;12.55;;;6.70;;
78482;SDS011;67772;50.158;8.658;2023-03-01T02:00:45;14.48;;;6.47;;
78482;SDS011;67772;50.158;8.658;2023-03-01T02:03:13;12.93;;;6.72;;
78482;SDS011;67772;50.158;8.658;2023-03-01T02:05:46;11.88;;;6.55;;
78482;SDS011;67772;50.158;8.658;2023-03-01T02:08:32;11.45;;;6.00;;
78482;SDS011;67772;50.158;8.658;2023-03-01T02:11:00;13.52;;;7.00;;
78482;SDS011;67772;50.158;8.658;2023-03-01T02:13:26;12.45;;;7.03;;
78482;SDS011;67772;50.158;8.658;2023-03-01T02:15:52;11.18;;;6.85;;
78482;SDS011;67772;50.158;8.658;2023-03-01T02:18:18;14.23;;;6.63;;
78482;SDS011;67772;50.158;8.658;2023-03-01T02:23:20;11.05;;;6.93;;
78482;SDS011;67772;50.158;8.658;2023-03-01T02:31:07;13.05;;;6.93;;
78482;SDS011;67772;50.158;8.658;2023-03-01T02:33:53;12.30;;;6.03;;
78482;SDS011;67772;50.158;8.658;2023-03-01T02:36:21;11.60;;;7.20;;
78482;SDS011;67772;50.158;8.658;2023-03-01T02:38:49;12.82;;;6.45;;
78482;SDS011;67772;50.158;8.658;2023-03-01T02:41:18;11.55;;;6.15;;
78482;SDS011;67772;50.158;8.658;2023-03-01T02:43:46;11.82;;;6.90;;
78482;SDS011;67772;50.158;8.658;2023-03-01T02:46:30;12.90;;;7.07;;
78482;SDS011;67772;50.158;8.658;2023-03-01T02:48:56;13.85;;;6.40;;
78482;SDS011;67772;50.158;8.658;2023-03-01T02:54:15;13.98;;;7.00;;
78482;SDS011;67772;50.158;8.658;2023-03-01T02:56:50;14.65;;;6.88;;
78482;SDS011;67772;50.158;8.658;2023-03-01T02:59:17;11.35;;;7.07;;
78482;SDS011;67772;50.158;8.658;2023-03-01T03:01:45;14.02;;;6.85;;
78482;SDS011;67772;50.158;8.658;2023-03-01T03:04:14;11.55;;;7.20;;
78482;SDS011;67772;50.158;8.658;2023-03-01T03:06:42;13.32;;;6.90;;
78482;SDS011;67772;50.158;8.658;2023-03-01T03:09:08;13.05;;;7.93;;
78482;SDS011;67772;50.158;8.658;2023-03-01T03:11:33;12.67;;;6.53;;
78482;SDS011;67772;50.158;8.658;2023-03-01T03:13:58;12.30;;;6.77;;
78482;SDS011;67772;50.158;8.658;2023-03-01T03:16:23;10.70;;;6.40;;
78482;SDS011;67772;50.158;8.658;2023-03-01T03:18:49;13.77;;;6.78;;
78482;SDS011;67772;50.158;8.658;2023-03-01T03:21:15;12.90;;;7.40;;
78482;SDS011;67772;50.158;8.658;2023-03-01T03:23:41;12.48;;;6.50;;
78482;SDS011;67772;50.158;8.658;2023-03-01T03:26:06;13.95;;;7.95;;
78482;SDS011;67772;50.158;8.658;2023-03-01T03:28:32;13.43;;;6.73;;
78482;SDS011;67772;50.158;8.658;2023-03-01T03:30:59;12.65;;;7.30;;
78482;SDS011;67772;50.158;8.658;2023-03-01T03:33:29;13.32;;;7.40;;
78482;SDS011;67772;50.158;8.658;2023-03-01T03:35:57;14.43;;;7.10;;
78482;SDS011;67772;50.158;8.658;2023-03-01T03:38:22;13.03;;;7.37;;
78482;SDS011;67772;50.158;8.658;2023-03-01T03:40:59;15.45;;;7.80;;
78482;SDS011;67772;50.158;8.658;2023-03-01T03:43:27;13.88;;;7.95;;
78482;SDS011;67772;50.158;8.658;2023-03-01T03:45:52;12.75;;;6.75;;
78482;SDS011;67772;50.158;8.658;2023-03-01T03:48:19;12.27;;;7.10;;
78482;SDS011;67772;50.158;8.658;2023-03-01T03:50:49;11.65;;;6.80;;
78482;SDS011;67772;50.158;8.658;2023-03-01T03:53:16;12.63;;;7.32;;
78482;SDS011;67772;50.158;8.658;2023-03-01T03:55:41;15.63;;;7.43;;
78482;SDS011;67772;50.158;8.658;2023-03-01T03:58:07;13.23;;;7.50;;
78482;SDS011;67772;50.158;8.658;2023-03-01T04:00:38;16.85;;;7.65;;
78482;SDS011;67772;50.158;8.658;2023-03-01T04:03:06;15.10;;;7.70;;
78482;SDS011;67772;50.158;8.658;2023-03-01T04:05:32;14.80;;;7.30;;
78482;SDS011;67772;50.158;8.658;2023-03-01T04:07:58;13.18;;;7.18;;
78482;SDS011;67772;50.158;8.658;2023-03-01T04:10:27;13.50;;;7.43;;
78482;SDS011;67772;50.158;8.658;2023-03-01T04:12:57;12.90;;;7.68;;
78482;SDS011;67772;50.158;8.658;2023-03-01T04:15:23;15.30;;;7.80;;
78482;SDS011;67772;50.158;8.658;2023-03-01T04:17:51;10.30;;;6.72;;
78482;SDS011;67772;50.158;8.658;2023-03-01T04:20:19;15.02;;;7.65;;
78482;SDS011;67772;50.158;8.658;2023-03-01T04:22:55;18.30;;;7.78;;
78482;SDS011;67772;50.158;8.658;2023-03-01T04:25:22;13.82;;;7.63;;
78482;SDS011;67772;50.158;8.658;2023-03-01T04:27:48;13.75;;;7.25;;
78482;SDS011;67772;50.158;8.658;2023-03-01T04:30:13;16.23;;;7.75;;
78482;SDS011;67772;50.158;8.658;2023-03-01T04:32:39;17.27;;;8.88;;
78482;SDS011;67772;50.158;8.658;2023-03-01T04:35:04;17.50;;;8.30;;
78482;SDS011;67772;50.158;8.658;2023-03-01T04:37:30;14.95;;;8.00;;
78482;SDS011;67772;50.158;8.658;2023-03-01T04:39:55;14.00;;;6.82;;
78482;SDS011;67772;50.158;8.658;2023-03-01T04:42:20;15.40;;;8.30;;
78482;SDS011;67772;50.158;8.658;2023-03-01T04:44:46;13.33;;;6.93;;
78482;SDS011;67772;50.158;8.658;2023-03-01T04:47:16;19.25;;;7.35;;
78482;SDS011;67772;50.158;8.658;2023-03-01T04:49:41;13.38;;;7.55;;
78482;SDS011;67772;50.158;8.658;2023-03-01T04:52:07;15.43;;;7.70;;
78482;SDS011;67772;50.158;8.658;2023-03-01T04:54:33;15.60;;;8.70;;
78482;SDS011;67772;50.158;8.658;2023-03-01T04:56:59;14.23;;;7.57;;
78482;SDS011;67772;50.158;8.658;2023-03-01T04:59:25;15.25;;;7.63;;
78482;SDS011;67772;50.158;8.658;2023-03-01T05:01:52;14.13;;;7.55;;
78482;SDS011;67772;50.158;8.658;2023-03-01T05:04:20;13.88;;;7.85;;
78482;SDS011;67772;50.158;8.658;2023-03-01T05:06:46;16.27;;;7.82;;
78482;SDS011;67772;50.158;8.658;2023-03-01T05:09:11;17.50;;;8.23;;
78482;SDS011;67772;50.158;8.658;2023-03-01T05:11:36;13.40;;;6.20;;
78482;SDS011;67772;50.158;8.658;2023-03-01T05:14:03;23.73;;;8.27;;
78482;SDS011;67772;50.158;8.658;2023-03-01T05:16:28;16.00;;;7.82;;
78482;SDS011;67772;50.158;8.658;2023-03-01T05:18:55;14.75;;;7.25;;
78482;SDS011;67772;50.158;8.658;2023-03-01T05:21:21;13.45;;;6.90;;
78482;SDS011;67772;50.158;8.658;2023-03-01T05:23:47;13.43;;;7.35;;
78482;SDS011;67772;50.158;8.658;2023-03-01T05:26:12;13.47;;;7.17;;
78482;SDS011;67772;50.158;8.658;2023-03-01T05:28:38;13.25;;;8.05;;
78482;SDS011;67772;50.158;8.658;2023-03-01T05:31:04;12.70;;;7.30;;
78482;SDS011;67772;50.158;8.658;2023-03-01T05:33:34;15.60;;;7.43;;
78482;SDS011;67772;50.158;8.658;2023-03-01T05:36:00;16.90;;;8.07;;
78482;SDS011;67772;50.158;8.658;2023-03-01T05:38:26;15.60;;;7.37;;
78482;SDS011;67772;50.158;8.658;2023-03-01T05:40:51;15.47;;;7.77;;
78482;SDS011;67772;50.158;8.658;2023-03-01T05:43:16;16.23;;;8.07;;
78482;SDS011;67772;50.158;8.658;2023-03-01T05:45:43;13.63;;;7.28;;
78482;SDS011;67772;50.158;8.658;2023-03-01T05:48:10;12.70;;;7.05;;
78482;SDS011;67772;50.158;8.658;2023-03-01T05:50:40;16.73;;;7.93;;
78482;SDS011;67772;50.158;8.658;2023-03-01T05:53:12;18.73;;;7.80;;
78482;SDS011;67772;50.158;8.658;2023-03-01T05:55:39;12.23;;;7.40;;
78482;SDS011;67772;50.158;8.658;2023-03-01T05:58:07;13.80;;;7.20;;
78482;SDS011;67772;50.158;8.658;2023-03-01T06:00:36;13.05;;;6.93;;
78482;SDS011;67772;50.158;8.658;2023-03-01T06:03:01;15.60;;;6.43;;
78482;SDS011;67772;50.158;8.658;2023-03-01T06:05:27;13.07;;;7.25;;
78482;SDS011;67772;50.158;8.658;2023-03-01T06:07:53;14.63;;;8.20;;
78482;SDS011;67772;50.158;8.658;2023-03-01T06:10:19;14.13;;;7.32;;
78482;SDS011;67772;50.158;8.658;2023-03-01T06:12:46;12.07;;;7.10;;
78482;SDS011;67772;50.158;8.658;2023-03-01T06:15:12;13.48;;;7.00;;
78482;SDS011;67772;50.158;8.658;2023-03-01T06:17:39;14.18;;;7.28;;
78482;SDS011;67772;50.158;8.658;2023-03-01T06:20:07;13.32;;;7.80;;
78482;SDS011;67772;50.158;8.658;2023-03-01T06:22:44;13.93;;;7.22;;
78482;SDS011;67772;50.158;8.658;2023-03-01T06:25:11;18.15;;;7.95;;
78482;SDS011;67772;50.158;8.658;2023-03-01T06:27:37;16.50;;;7.93;;
78482;SDS011;67772;50.158;8.658;2023-03-01T06:30:03;13.48;;;7.32;;
78482;SDS011;67772;50.158;8.658;2023-03-01T06:32:29;14.27;;;7.82;;
78482;SDS011;67772;50.158;8.658;2023-03-01T06:34:55;15.48;;;7.63;;
78482;SDS011;67772;50.158;8.658;2023-03-01T06:37:20;19.90;;;7.65;;
78482;SDS011;67772;50.158;8.658;2023-03-01T06:39:45;16.07;;;7.50;;
78482;SDS011;67772;50.158;8.658;2023-03-01T06:42:11;14.43;;;6.93;;
78482;SDS011;67772;50.158;8.658;2023-03-01T06:44:36;13.95;;;7.00;;
78482;SDS011;67772;50.158;8.658;2023-03-01T06:47:02;14.27;;;7.25;;
78482;SDS011;67772;50.158;8.658;2023-03-01T06:49:28;19.73;;;8.50;;
78482;SDS011;67772;50.158;8.658;2023-03-01T06:51:53;12.65;;;7.70;;
78482;SDS011;67772;50.158;8.658;2023-03-01T06:54:19;14.77;;;7.83;;
78482;SDS011;67772;50.158;8.658;2023-03-01T06:56:47;13.18;;;7.13;;
78482;SDS011;67772;50.158;8.658;2023-03-01T06:59:13;14.60;;;7.07;;
78482;SDS011;67772;50.158;8.658;2023-03-01T07:01:38;15.88;;;8.05;;
78482;SDS011;67772;50.158;8.658;2023-03-01T07:04:04;13.23;;;7.28;;
78482;SDS011;67772;50.158;8.658;2023-03-01T07:06:29;14.20;;;7.93;;
78482;SDS011;67772;50.158;8.658;2023-03-01T07:08:54;12.87;;;7.80;;
78482;SDS011;67772;50.158;8.658;2023-03-01T07:11:20;14.97;;;7.93;;
78482;SDS011;67772;50.158;8.658;2023-03-01T07:13:45;16.10;;;7.75;;
78482;SDS011;67772;50.158;8.658;2023-03-01T07:16:10;15.30;;;7.30;;
78482;SDS011;67772;50.158;8.658;2023-03-01T07:18:35;14.77;;;7.80;;
78482;SDS011;67772;50.158;8.658;2023-03-01T07:21:04;15.57;;;7.67;;
78482;SDS011;67772;50.158;8.658;2023-03-01T07:25:56;12.90;;;6.60;;
78482;SDS011;67772;50.158;8.658;2023-03-01T07:28:22;13.50;;;7.10;;
78482;SDS011;67772;50.158;8.658;2023-03-01T07:30:48;16.35;;;7.75;;
78482;SDS011;67772;50.158;8.658;2023-03-01T07:33:13;12.65;;;7.78;;
78482;SDS011;67772;50.158;8.658;2023-03-01T07:35:39;15.03;;;8.53;;
78482;SDS011;67772;50.158;8.658;2023-03-01T07:38:04;12.25;;;7.28;;
78482;SDS011;67772;50.158;8.658;2023-03-01T07:40:29;13.83;;;7.87;;
78482;SDS011;67772;50.158;8.658;2023-03-01T07:42:57;14.37;;;8.40;;
78482;SDS011;67772;50.158;8.658;2023-03-01T07:45:24;16.92;;;8.98;;
78482;SDS011;67772;50.158;8.658;2023-03-01T07:47:50;15.23;;;9.00;;
78482;SDS011;67772;50.158;8.658;2023-03-01T07:50:16;14.38;;;8.95;;
78482;SDS011;67772;50.158;8.658;2023-03-01T07:52:41;14.52;;;8.52;;
78482;SDS011;67772;50.158;8.658;2023-03-01T07:55:09;13.15;;;8.02;;
78482;SDS011;67772;50.158;8.658;2023-03-01T07:57:35;15.63;;;8.02;;
78482;SDS011;67772;50.158;8.658;2023-03-01T08:00:00;14.68;;;9.35;;
78482;SDS011;67772;50.158;8.658;2023-03-01T08:02:25;15.67;;;8.67;;
78482;SDS011;67772;50.158;8.658;2023-03-01T08:04:50;16.33;;;8.27;;
78482;SDS011;67772;50.158;8.658;2023-03-01T08:07:16;12.30;;;8.43;;
78482;SDS011;67772;50.158;8.658;2023-03-01T08:09:41;16.43;;;8.33;;
78482;SDS011;67772;50.158;8.658;2023-03-01T08:12:06;15.60;;;8.52;;
78482;SDS011;67772;50.158;8.658;2023-03-01T08:14:32;11.75;;;7.90;;
78482;SDS011;67772;50.158;8.658;2023-03-01T08:16:58;14.57;;;8.25;;
78482;SDS011;67772;50.158;8.658;2023-03-01T08:19:23;13.38;;;9.20;;
78482;SDS011;67772;50.158;8.658;2023-03-01T08:21:48;13.85;;;9.25;;
78482;SDS011;67772;50.158;8.658;2023-03-01T08:24:14;20.55;;;12.45;;
78482;SDS011;67772;50.158;8.658;2023-03-01T08:26:39;15.30;;;9.93;;
78482;SDS011;67772;50.158;8.658;2023-03-01T08:29:05;14.05;;;9.55;;
78482;SDS011;67772;50.158;8.658;2023-03-01T08:31:32;12.98;;;9.27;;
78482;SDS011;67772;50.158;8.658;2023-03-01T08:34:04;12.75;;;9.63;;
78482;SDS011;67772;50.158;8.658;2023-03-01T08:36:34;13.88;;;9.05;;
78482;SDS011;67772;50.158;8.658;2023-03-01T08:39:02;12.88;;;9.55;;
78482;SDS011;67772;50.158;8.658;2023-03-01T08:41:28;16.02;;;10.23;;
78482;SDS011;67772;50.158;8.658;2023-03-01T08:43:53;15.38;;;10.40;;
78482;SDS011;67772;50.158;8.658;2023-03-01T08:46:23;19.10;;;13.50;;
78482;SDS011;67772;50.158;8.658;2023-03-01T08:49:05;14.15;;;11.43;;
78482;SDS011;67772;50.158;8.658;2023-03-01T08:51:31;13.38;;;11.40;;
78482;SDS011;67772;50.158;8.658;2023-03-01T08:54:01;13.73;;;11.35;;
78482;SDS011;67772;50.158;8.658;2023-03-01T08:56:28;13.30;;;11.52;;
78482;SDS011;67772;50.158;8.658;2023-03-01T08:58:53;13.38;;;11.82;;
78482;SDS011;67772;50.158;8.658;2023-03-01T09:01:19;15.13;;;12.18;;
78482;SDS011;67772;50.158;8.658;2023-03-01T09:03:44;13.18;;;11.80;;
78482;SDS011;67772;50.158;8.658;2023-03-01T09:06:10;14.27;;;12.45;;
78482;SDS011;67772;50.158;8.658;2023-03-01T09:08:36;13.48;;;12.02;;
78482;SDS011;67772;50.158;8.658;2023-03-01T09:11:05;13.23;;;11.90;;
78482;SDS011;67772;50.158;8.658;2023-03-01T09:13:32;12.95;;;11.57;;
78482;SDS011;67772;50.158;8.658;2023-03-01T09:15:59;13.90;;;12.60;;
78482;SDS011;67772;50.158;8.658;2023-03-01T09:18:26;13.77;;;12.32;;
78482;SDS011;67772;50.158;8.658;2023-03-01T09:20:51;14.52;;;12.90;;
78482;SDS011;67772;50.158;8.658;2023-03-01T09:23:19;13.18;;;10.98;;
78482;SDS011;67772;50.158;8.658;2023-03-01T09:25:45;14.90;;;12.20;;
78482;SDS011;67772;50.158;8.658;2023-03-01T09:28:10;12.47;;;11.27;;
78482;SDS011;67772;50.158;8.658;2023-03-01T09:30:36;13.38;;;11.65;;
78482;SDS011;67772;50.158;8.658;2023-03-01T09:33:01;12.80;;;11.70;;
78482;SDS011;67772;50.158;8.658;2023-03-01T09:35:26;14.23;;;12.73;;
78482;SDS011;67772;50.158;8.658;2023-03-01T09:37:52;15.07;;;12.90;;
78482;SDS011;67772;50.158;8.658;2023-03-01T09:40:19;13.07;;;11.85;;
78482;SDS011;67772;50.158;8.658;2023-03-01T09:43:05;13.55;;;12.32;;
78482;SDS011;67772;50.158;8.658;2023-03-01T09:45:40;13.00;;;11.80;;
78482;SDS011;67772;50.158;8.658;2023-03-01T09:48:12;13.90;;;12.40;;
78482;SDS011;67772;50.158;8.658;2023-03-01T09:50:42;13.10;;;11.80;;
78482;SDS011;67772;50.158;8.658;2023-03-01T09:53:15;13.75;;;12.05;;
78482;SDS011;67772;50.158;8.658;2023-03-01T09:55:59;14.32;;;12.93;;
78482;SDS011;67772;50.158;8.658;2023-03-01T09:58:59;13.80;;;12.52;;
78482;SDS011;67772;50.158;8.658;2023-03-01T10:04:24;13.25;;;11.95;;
78482;SDS011;67772;50.158;8.658;2023-03-01T10:09:35;13.52;;;12.13;;
78482;SDS011;67772;50.158;8.658;2023-03-01T10:12:04;13.70;;;12.45;;
78482;SDS011;67772;50.158;8.658;2023-03-01T10:14:36;12.63;;;11.40;;
78482;SDS011;67772;50.158;8.658;2023-03-01T10:22:47;14.60;;;13.27;;
78482;SDS011;67772;50.158;8.658;2023-03-01T10:26:06;13.77;;;12.52;;
78482;SDS011;67772;50.158;8.658;2023-03-01T10:31:02;13.43;;;12.13;;
78482;SDS011;67772;50.158;8.658;2023-03-01T10:33:31;13.73;;;12.35;;
78482;SDS011;67772;50.158;8.658;2023-03-01T10:36:00;13.55;;;12.25;;
78482;SDS011;67772;50.158;8.658;2023-03-01T10:38:26;13.82;;;12.52;;
78482;SDS011;67772;50.158;8.658;2023-03-01T10:40:59;14.10;;;12.80;;
78482;SDS011;67772;50.158;8.658;2023-03-01T10:43:45;13.40;;;12.10;;
78482;SDS011;67772;50.158;8.658;2023-03-01T10:51:47;13.50;;;12.20;;
78482;SDS011;67772;50.158;8.658;2023-03-01T10:54:18;13.30;;;12.00;;
78482;SDS011;67772;50.158;8.658;2023-03-01T10:56:47;12.77;;;11.48;;
78482;SDS011;67772;50.158;8.658;2023-03-01T10:59:29;13.23;;;12.02;;
78482;SDS011;67772;50.158;8.658;2023-03-01T11:04:39;12.77;;;11.57;;
78482;SDS011;67772;50.158;8.658;2023-03-01T11:07:04;13.37;;;12.07;;
78482;SDS011;67772;50.158;8.658;2023-03-01T11:09:31;12.40;;;11.23;;
78482;SDS011;67772;50.158;8.658;2023-03-01T11:12:03;12.95;;;11.80;;
78482;SDS011;67772;50.158;8.658;2023-03-01T11:14:39;13.20;;;11.90;;
78482;SDS011;67772;50.158;8.658;2023-03-01T11:20:14;12.88;;;11.77;;
78482;SDS011;67772;50.158;8.658;2023-03-01T11:22:45;12.88;;;11.65;;
78482;SDS011;67772;50.158;8.658;2023-03-01T11:25:14;12.20;;;11.10;;
78482;SDS011;67772;50.158;8.658;2023-03-01T11:27:44;12.20;;;10.93;;
78482;SDS011;67772;50.158;8.658;2023-03-01T11:33:03;12.55;;;11.30;;
78482;SDS011;67772;50.158;8.658;2023-03-01T11:35:41;12.70;;;11.50;;
78482;SDS011;67772;50.158;8.658;2023-03-01T11:38:23;12.75;;;11.65;;
78482;SDS011;67772;50.158;8.658;2023-03-01T11:43:44;12.43;;;10.85;;
78482;SDS011;67772;50.158;8.658;2023-03-01T11:51:25;12.52;;;11.32;;
78482;SDS011;67772;50.158;8.658;2023-03-01T11:54:09;11.63;;;10.63;;
78482;SDS011;67772;50.158;8.658;2023-03-01T11:56:45;11.75;;;10.55;;
78482;SDS011;67772;50.158;8.658;2023-03-01T12:02:22;10.93;;;9.93;;
78482;SDS011;67772;50.158;8.658;2023-03-01T12:08:03;11.63;;;10.60;;
78482;SDS011;67772;50.158;8.658;2023-03-01T12:14:08;11.43;;;10.25;;
78482;SDS011;67772;50.158;8.658;2023-03-01T12:22:04;13.88;;;12.13;;
78482;SDS011;67772;50.158;8.658;2023-03-01T12:27:57;10.70;;;9.70;;
78482;SDS011;67772;50.158;8.658;2023-03-01T12:35:46;11.90;;;10.80;;
78482;SDS011;67772;50.158;8.658;2023-03-01T12:49:26;10.05;;;9.05;;
78482;SDS011;67772;50.158;8.658;2023-03-01T12:52:09;10.65;;;9.07;;
78482;SDS011;67772;50.158;8.658;2023-03-01T12:54:53;9.35;;;8.40;;
78482;SDS011;67772;50.158;8.658;2023-03-01T12:57:25;12.80;;;9.30;;
78482;SDS011;67772;50.158;8.658;2023-03-01T13:02:52;9.05;;;7.88;;
78482;SDS011;67772;50.158;8.658;2023-03-01T13:08:27;10.65;;;8.57;;
78482;SDS011;67772;50.158;8.658;2023-03-01T13:11:01;10.77;;;8.15;;
78482;SDS011;67772;50.158;8.658;2023-03-01T13:13:29;10.40;;;8.73;;
78482;SDS011;67772;50.158;8.658;2023-03-01T13:15:55;12.20;;;8.07;;
78482;SDS011;67772;50.158;8.658;2023-03-01T13:20:59;10.05;;;7.75;;
78482;SDS011;67772;50.158;8.658;2023-03-01T13:23:30;11.20;;;7.28;;
78482;SDS011;67772;50.158;8.658;2023-03-01T13:31:10;9.30;;;6.85;;
78482;SDS011;67772;50.158;8.658;2023-03-01T13:46:58;12.70;;;6.25;;
78482;SDS011;67772;50.158;8.658;2023-03-01T13:49:28;11.77;;;6.85;;
78482;SDS011;67772;50.158;8.658;2023-03-01T13:52:00;12.25;;;6.95;;
78482;SDS011;67772;50.158;8.658;2023-03-01T13:54:29;8.60;;;6.30;;
78482;SDS011;67772;50.158;8.658;2023-03-01T13:56:57;11.25;;;6.50;;
78482;SDS011;67772;50.158;8.658;2023-03-01T13:59:24;21.75;;;8.43;;
78482;SDS011;67772;50.158;8.658;2023-03-01T14:01:56;8.57;;;6.05;;
78482;SDS011;67772;50.158;8.658;2023-03-01T14:06:48;10.93;;;6.00;;
78482;SDS011;67772;50.158;8.658;2023-03-01T14:09:23;9.93;;;6.85;;
78482;SDS011;67772;50.158;8.658;2023-03-01T14:12:06;12.13;;;6.70;;
78482;SDS011;67772;50.158;8.658;2023-03-01T14:20:02;52.35;;;9.88;;
78482;SDS011;67772;50.158;8.658;2023-03-01T14:22:55;19.48;;;8.82;;
78482;SDS011;67772;50.158;8.658;2023-03-01T14:25:25;11.68;;;6.97;;
78482;SDS011;67772;50.158;8.658;2023-03-01T14:32:56;9.65;;;5.88;;
78482;SDS011;67772;50.158;8.658;2023-03-01T14:35:25;11.60;;;6.00;;
78482;SDS011;67772;50.158;8.658;2023-03-01T14:37:52;12.90;;;6.72;;
78482;SDS011;67772;50.158;8.658;2023-03-01T14:40:22;10.55;;;7.03;;
78482;SDS011;67772;50.158;8.658;2023-03-01T14:42:56;9.73;;;6.20;;
78482;SDS011;67772;50.158;8.658;2023-03-01T14:45:24;11.85;;;6.63;;
78482;SDS011;67772;50.158;8.658;2023-03-01T14:47:51;9.43;;;5.95;;
78482;SDS011;67772;50.158;8.658;2023-03-01T14:50:21;9.60;;;6.53;;
78482;SDS011;67772;50.158;8.658;2023-03-01T14:52:50;9.43;;;6.05;;
78482;SDS011;67772;50.158;8.658;2023-03-01T14:57:49;12.10;;;5.82;;
78482;SDS011;67772;50.158;8.658;2023-03-01T15:00:34;8.52;;;5.40;;
78482;SDS011;67772;50.158;8.658;2023-03-01T15:03:01;9.98;;;5.82;;
78482;SDS011;67772;50.158;8.658;2023-03-01T15:05:38;8.50;;;5.90;;
78482;SDS011;67772;50.158;8.658;2023-03-01T15:08:05;9.88;;;5.70;;
78482;SDS011;67772;50.158;8.658;2023-03-01T15:10:35;13.52;;;7.38;;
78482;SDS011;67772;50.158;8.658;2023-03-01T15:13:11;12.13;;;6.28;;
78482;SDS011;67772;50.158;8.658;2023-03-01T15:15:47;10.27;;;5.68;;
78482;SDS011;67772;50.158;8.658;2023-03-01T15:18:19;9.77;;;5.70;;
78482;SDS011;67772;50.158;8.658;2023-03-01T15:20:48;8.30;;;5.72;;
78482;SDS011;67772;50.158;8.658;2023-03-01T15:23:28;8.98;;;5.10;;
78482;SDS011;67772;50.158;8.658;2023-03-01T15:25:55;8.25;;;5.45;;
78482;SDS011;67772;50.158;8.658;2023-03-01T15:28:32;8.38;;;4.85;;
78482;SDS011;67772;50.158;8.658;2023-03-01T15:31:41;8.52;;;4.88;;
78482;SDS011;67772;50.158;8.658;2023-03-01T15:33:49;9.93;;;5.03;;
78482;SDS011;67772;50.158;8.658;2023-03-01T15:38:56;10.73;;;5.90;;
78482;SDS011;67772;50.158;8.658;2023-03-01T15:41:37;8.60;;;5.10;;
78482;SDS011;67772;50.158;8.658;2023-03-01T15:44:16;9.60;;;5.43;;
78482;SDS011;67772;50.158;8.658;2023-03-01T15:46:45;8.77;;;5.28;;
78482;SDS011;67772;50.158;8.658;2023-03-01T15:52:01;9.30;;;6.05;;
78482;SDS011;67772;50.158;8.658;2023-03-01T15:54:27;9.07;;;5.57;;
78482;SDS011;67772;50.158;8.658;2023-03-01T15:56:56;8.02;;;5.65;;
78482;SDS011;67772;50.158;8.658;2023-03-01T15:59:22;9.23;;;5.00;;
78482;SDS011;67772;50.158;8.658;2023-03-01T16:01:48;10.07;;;5.85;;
78482;SDS011;67772;50.158;8.658;2023-03-01T16:04:14;11.88;;;5.55;;
78482;SDS011;67772;50.158;8.658;2023-03-01T16:06:48;8.35;;;4.72;;
78482;SDS011;67772;50.158;8.658;2023-03-01T16:09:23;7.90;;;5.18;;
78482;SDS011;67772;50.158;8.658;2023-03-01T16:11:50;9.43;;;5.00;;
78482;SDS011;67772;50.158;8.658;2023-03-01T16:14:17;10.10;;;5.18;;
78482;SDS011;67772;50.158;8.658;2023-03-01T16:16:43;11.57;;;5.40;;
78482;SDS011;67772;50.158;8.658;2023-03-01T16:19:09;10.65;;;5.18;;
78482;SDS011;67772;50.158;8.658;2023-03-01T16:21:35;9.20;;;5.00;;
78482;SDS011;67772;50.158;8.658;2023-03-01T16:24:00;9.10;;;4.88;;
78482;SDS011;67772;50.158;8.658;2023-03-01T16:26:25;10.57;;;5.88;;
78482;SDS011;67772;50.158;8.658;2023-03-01T16:28:53;10.30;;;5.72;;
78482;SDS011;67772;50.158;8.658;2023-03-01T16:31:20;11.45;;;6.43;;
78482;SDS011;67772;50.158;8.658;2023-03-01T16:33:46;9.77;;;5.83;;
78482;SDS011;67772;50.158;8.658;2023-03-01T16:36:14;9.80;;;5.45;;
78482;SDS011;67772;50.158;8.658;2023-03-01T16:38:42;12.00;;;6.25;;
78482;SDS011;67772;50.158;8.658;2023-03-01T16:41:14;10.40;;;5.18;;
78482;SDS011;67772;50.158;8.658;2023-03-01T16:43:40;88.53;;;34.53;;
78482;SDS011;67772;50.158;8.658;2023-03-01T16:46:10;26.55;;;12.52;;
78482;SDS011;67772;50.158;8.658;2023-03-01T16:48:37;12.23;;;6.47;;
78482;SDS011;67772;50.158;8.658;2023-03-01T16:51:02;10.25;;;6.05;;
78482;SDS011;67772;50.158;8.658;2023-03-01T16:53:28;8.38;;;5.68;;